EGLLLIPA

Guest
Details From EGLL - London Heathrow
To LIPA - Aviano Ab
Flight Number -
Tags Generated
Created
Modified
Stats Distance 611 nm / 1,131 km
Max Altitude 0 ft / 0 m
Waypoints 4
Social Downloads 0
Likes 0
Share VATSIM

Download

Looking for another format? Having issues loading an existing format? Contact us
Advertisement - Login to hide

Notes

Generated

Route

EGLL LOU R1259 LIPA

ID Type Via Altitude Latitude Longitude Leg Dist Tot Dist Heading (true) Name
O EGLL APT - 0 ft / 0 m 51.46477˚ -0.48695˚ - 0 nm - -
LOU NDB - 0 ft / 0 m 48.99806˚ 6.27139˚ 298 nm 298 nm 117° / 122° Metz Nancy Lorrraine NDB
R1259 FIX - 0 ft / 0 m 46.02333˚ 12.58389˚ 312 nm 610 nm 123° / 127° -
O LIPA APT - 0 ft / 0 m 46.02333˚ 12.58389˚ 0 nm 610 nm 0° / 180° -

Altitude Profile

Advertisement - Login to hide

Weather


0- 5 10 15 20 25 30 35+ Temperature / ° C

Clouds and Precipitation
Forecast for 2017-12-16 18:00 UTC. Updated 2 hours ago

Ground ~20,000 ft ~40,000 ft Winds

EGLL

Details ICAO EGLL (LHR)
Name London Heathrow
Region United Kingdom
Timezone Europe/London (UTC+0.0)
Stats Elevation 83 ft / 25 m (AMSL)
Location 51.471218° -0.460978°
Runways 2
Magnetic Variation 0.559° W

METAR

EGLL 161450Z AUTO 28007KT 9999 -RA BKN033 06/02 Q1019 NOSIG

Decode

TAF

TAF EGLL 161055Z 1612/1718 29006KT 9999 SCT018 PROB30 TEMPO 1613/1620 8000 -SHRA BKN014 BECMG 1620/1623 6000 TEMPO 1623/1712 3000 BR MIFG BKN003 PROB40 1701/1710 0300 FZFG FG VV/// BECMG 1709/1712 -RA BKN010 TEMPO 1712/1718 3000 RADZ BKN006

Decode

Departure Runways

ID Width Length Bearing (true) Bearing (mag) Surface Threshold Offset Overrun Length
09L 164 ft / 50 m 12,811 ft / 3,905 m 89.64° 90.20° Asphalt 1,004 ft / 306 m 0 ft / 0 m
09R 164 ft / 50 m 12,019 ft / 3,663 m 89.67° 90.23° Asphalt 1,007 ft / 307 m 0 ft / 0 m
27L 164 ft / 50 m 12,019 ft / 3,663 m 269.71° 270.27° Asphalt 0 ft / 0 m 69 ft / 21 m
27R 164 ft / 50 m 12,811 ft / 3,905 m 269.69° 270.25° Asphalt 0 ft / 0 m 69 ft / 21 m

LIPA

Details ICAO LIPA (AVB)
Name AVIANO AB
Region Italy
Timezone Europe/Rome (UTC+1.0)
Stats Elevation 410 ft / 125 m (AMSL)
Location 46.031111° 12.596389°
Runways 1
Magnetic Variation 3.256° E

METAR

LIPA 161455Z 20001KT 9999 FEW050 10/M00 Q1008 RMK FEW VIS MIN 9999 WIND THR05 /////KT WIND THR23 /////KT A2978 BLU

Decode

TAF

Not found

Destination Runways

ID Width Length Bearing (true) Bearing (mag) Surface Threshold Offset Overrun Length
05 144 ft / 44 m 8,505 ft / 2,592 m 48.12° 44.86° Asphalt 0 ft / 0 m 845 ft / 258 m
23 144 ft / 44 m 8,505 ft / 2,592 m 228.14° 224.88° Asphalt 0 ft / 0 m 919 ft / 280 m

Approach Navaids

Runway Type Ident Frequency Range Bearing (true) Bearing (mag) Slope Elevation
05 Localiser IAVI 109.50 MHz 18 nm / 33 km 48.12° 44.87° - 410 ft / 125 m (AMSL)